Time;durP1;ratioP1;P1;durP2;ratioP2;P2;SDS_P1;SDS_P2;PMS_P1;PMS_P2;Temp;Humidity;BMP_temperature;BMP_pressure;BME280_temperature;BME280_humidity;BME280_pressure;Samples;Min_cycle;Max_cycle;Signal;HPM_P1;HPM_P2
2022/04/21 00:00:39;;;;;;;43.60;29.80;;;;;;;8.47;77.46;99753.62;130576;1268;108848;-84
2022/04/21 00:03:44;;;;;;;39.20;26.30;;;;;;;8.43;77.52;99751.33;130465;1268;108667;-85
2022/04/21 00:06:50;;;;;;;41.80;27.00;;;;;;;8.40;77.61;99752.69;130430;1268;108815;-85
2022/04/21 00:09:55;;;;;;;45.70;29.00;;;;;;;8.31;77.95;99754.02;130501;1268;109516;-84
2022/04/21 00:13:01;;;;;;;46.70;30.70;;;;;;;8.29;78.08;99757.60;130509;1268;108826;-83
2022/04/21 00:16:07;;;;;;;44.30;29.90;;;;;;;8.36;77.92;99757.67;130488;1268;108693;-83
2022/04/21 00:19:13;;;;;;;44.60;30.30;;;;;;;8.41;77.99;99751.38;130489;1268;108878;-84
2022/04/21 00:25:42;;;;;;;41.60;26.10;;;;;;;8.44;77.83;99748.91;130317;1268;191548;-84
2022/04/21 00:28:47;;;;;;;39.50;26.10;;;;;;;8.43;78.08;99749.56;130510;1268;109120;-82
2022/04/21 00:31:53;;;;;;;44.60;28.70;;;;;;;8.43;78.03;99751.65;130556;1270;108947;-82
2022/04/21 00:34:58;;;;;;;41.00;28.10;;;;;;;8.49;78.27;99750.60;130514;1268;108692;-82
2022/04/21 00:38:04;;;;;;;44.60;29.00;;;;;;;8.54;77.96;99754.34;130541;1268;108948;-82
2022/04/21 00:41:09;;;;;;;46.30;29.90;;;;;;;8.53;78.03;99751.18;130461;1268;108968;-82
2022/04/21 00:44:15;;;;;;;44.10;30.60;;;;;;;8.52;77.89;99753.60;130485;1268;108763;-82
2022/04/21 00:47:21;;;;;;;46.40;30.80;;;;;;;8.51;78.08;99753.36;130453;1268;108547;-81
2022/04/21 00:50:29;;;;;;;45.60;27.40;;;;;;;8.44;78.03;99755.52;131402;1269;108720;-83
2022/04/21 00:53:34;;;;;;;46.20;27.90;;;;;;;8.36;78.53;99750.23;130857;1268;108738;-83
2022/04/21 00:56:42;;;;;;;48.50;32.90;;;;;;;8.30;78.54;99751.19;130488;1270;108683;-81
2022/04/21 00:59:48;;;;;;;52.40;32.60;;;;;;;8.24;78.95;99751.70;130541;1268;108712;-83
2022/04/21 01:02:54;;;;;;;53.50;34.00;;;;;;;8.21;78.99;99749.91;130521;1268;108627;-83
2022/04/21 01:05:59;;;;;;;54.30;34.50;;;;;;;8.19;79.01;99753.31;130478;1268;108747;-83
2022/04/21 01:09:05;;;;;;;51.20;32.10;;;;;;;8.12;79.02;99749.94;130476;1270;108768;-81
2022/04/21 01:12:13;;;;;;;47.50;28.40;;;;;;;8.07;79.13;99748.09;130464;1268;106898;-82
2022/04/21 01:25:10;;;;;;;47.70;30.20;;;;;;;8.23;79.20;99751.45;130268;1269;109146;-77
2022/04/21 01:28:16;;;;;;;61.00;34.40;;;;;;;8.24;79.20;99750.14;130245;1270;109636;-80
2022/04/21 01:31:24;;;;;;;49.00;30.60;;;;;;;8.24;78.97;99743.54;130421;1269;108892;-81
2022/04/21 01:34:30;;;;;;;45.30;26.60;;;;;;;8.27;79.09;99745.58;130435;1268;108836;-81
2022/04/21 01:41:12;;;;;;;52.10;33.90;;;;;;;8.39;78.95;99740.15;130281;1268;108822;-79
2022/04/21 01:44:17;;;;;;;51.80;32.90;;;;;;;8.40;78.96;99745.89;130493;1268;108664;-81
2022/04/21 01:47:23;;;;;;;51.40;32.90;;;;;;;8.44;78.89;99746.45;130482;1268;108887;-82
2022/04/21 01:50:29;;;;;;;51.80;32.90;;;;;;;8.47;79.07;99743.31;130452;1270;108868;-83
2022/04/21 01:53:34;;;;;;;49.50;29.60;;;;;;;8.48;78.95;99739.17;130438;1269;108690;-81
2022/04/21 01:56:40;;;;;;;43.80;26.40;;;;;;;8.43;79.26;99733.80;130522;1270;108785;-83
2022/04/21 01:59:45;;;;;;;53.60;34.10;;;;;;;8.42;79.31;99730.98;130375;1269;108780;-79
2022/04/21 02:02:51;;;;;;;56.90;35.00;;;;;;;8.37;79.34;99728.50;130345;1268;109104;-79
2022/04/21 02:05:57;;;;;;;56.40;33.80;;;;;;;8.36;79.30;99730.86;130434;1270;108766;-81
2022/04/21 02:09:02;;;;;;;50.40;32.90;;;;;;;8.34;79.65;99727.91;131099;1268;108353;-81
2022/04/21 02:12:11;;;;;;;55.90;34.70;;;;;;;8.31;79.55;99726.48;130585;1269;108834;-83
2022/04/21 02:15:17;;;;;;;48.90;28.70;;;;;;;8.30;79.48;99721.42;130491;1269;108902;-84
2022/04/21 02:18:23;;;;;;;45.10;28.10;;;;;;;8.25;79.58;99714.20;130572;1268;108987;-85
2022/04/21 02:21:29;;;;;;;52.70;33.10;;;;;;;8.26;79.60;99710.91;130577;1268;109577;-83
2022/04/21 02:24:34;;;;;;;50.00;31.90;;;;;;;8.33;79.91;99709.09;130520;1270;108867;-83
2022/04/21 02:27:42;;;;;;;51.00;33.10;;;;;;;8.36;79.55;99711.55;130516;1268;108768;-79
2022/04/21 02:30:47;;;;;;;53.00;33.80;;;;;;;8.36;79.68;99711.94;130339;1268;109129;-78
2022/04/21 02:33:53;;;;;;;55.50;33.50;;;;;;;8.33;79.85;99712.22;130524;1270;108742;-79
2022/04/21 02:36:58;;;;;;;47.60;28.60;;;;;;;8.26;79.90;99706.66;130301;1268;108839;-80
2022/04/21 02:40:05;;;;;;;49.10;28.50;;;;;;;8.23;80.39;99703.95;130302;1269;108693;-81
2022/04/21 02:43:11;;;;;;;47.50;31.60;;;;;;;8.14;80.12;99702.73;130369;1268;108849;-80
2022/04/21 02:46:16;;;;;;;50.10;32.70;;;;;;;8.13;80.24;99704.48;130397;1271;108850;-81
2022/04/21 02:49:22;;;;;;;51.50;32.80;;;;;;;8.13;80.51;99704.64;130563;1270;108856;-78
2022/04/21 02:52:29;;;;;;;51.60;33.50;;;;;;;8.12;80.67;99711.63;130569;1268;108776;-78
2022/04/21 02:59:00;;;;;;;45.20;26.80;;;;;;;8.04;80.67;99710.80;130404;1271;108784;-79
2022/04/21 03:02:06;;;;;;;49.20;31.30;;;;;;;8.09;80.61;99711.24;130447;1268;108716;-81
2022/04/21 03:05:12;;;;;;;52.80;32.80;;;;;;;8.11;81.45;99712.46;130325;1270;108944;-83
2022/04/21 03:08:17;;;;;;;48.00;31.00;;;;;;;8.06;81.10;99713.94;131525;1270;108891;-83
2022/04/21 03:11:23;;;;;;;52.90;32.80;;;;;;;8.04;81.09;99712.20;130517;1270;107328;-82
2022/04/21 03:14:28;;;;;;;46.90;27.70;;;;;;;8.04;81.30;99710.60;130460;1270;108885;-82
2022/04/21 03:17:34;;;;;;;44.20;26.50;;;;;;;7.99;82.31;99702.12;130557;1270;108758;-82
2022/04/21 03:24:21;;;;;;;51.80;31.30;;;;;;;7.89;82.61;99701.33;130534;1268;108419;-77
2022/04/21 03:27:29;;;;;;;67.10;38.60;;;;;;;7.82;83.44;99706.75;130306;1269;108955;-79
2022/04/21 03:30:34;;;;;;;45.50;28.90;;;;;;;7.75;82.79;99705.44;130309;1270;108664;-79
2022/04/21 03:33:39;;;;;;;45.50;29.30;;;;;;;7.76;82.75;99703.81;130296;1270;108833;-79
2022/04/21 03:36:48;;;;;;;44.70;29.10;;;;;;;7.82;82.64;99702.52;130347;1268;107593;-82
2022/04/21 03:39:53;;;;;;;83.60;48.60;;;;;;;7.87;82.24;99697.56;130614;1269;108610;-80
2022/04/21 03:42:59;;;;;;;53.50;35.00;;;;;;;7.92;82.82;99697.66;130538;1268;109599;-78
2022/04/21 03:46:04;;;;;;;40.50;26.20;;;;;;;7.91;83.58;99698.48;130685;1269;109551;-78
2022/04/21 03:49:10;;;;;;;41.20;25.40;;;;;;;7.83;83.35;99699.70;130479;1268;108731;-79
2022/04/21 03:52:17;;;;;;;47.10;30.30;;;;;;;7.80;84.43;99701.81;130446;1268;108772;-78
2022/04/21 03:55:23;;;;;;;47.90;31.20;;;;;;;7.75;85.20;99700.33;130665;1268;108897;-78
2022/04/21 03:58:29;;;;;;;49.00;31.10;;;;;;;7.71;84.88;99698.14;130666;1268;108914;-79
2022/04/21 04:01:35;;;;;;;43.00;26.00;;;;;;;7.67;85.06;99697.79;130740;1269;108816;-80
2022/04/21 04:04:40;;;;;;;45.60;28.70;;;;;;;7.67;84.47;99701.10;130539;1268;108710;-80
2022/04/21 04:11:17;;;;;;;45.40;29.70;;;;;;;7.76;84.50;99701.66;130553;1268;108759;-78
2022/04/21 04:14:23;;;;;;;44.90;28.20;;;;;;;7.77;85.33;99704.77;130587;1268;108700;-78
2022/04/21 04:17:28;;;;;;;41.50;26.60;;;;;;;7.74;85.40;99707.48;130760;1267;108816;-79
2022/04/21 04:20:34;;;;;;;45.40;29.20;;;;;;;7.77;84.73;99705.65;130508;1267;108828;-79
2022/04/21 04:23:39;;;;;;;48.80;30.00;;;;;;;7.81;84.85;99705.41;130383;1267;108559;-80
2022/04/21 04:26:45;;;;;;;50.80;30.50;;;;;;;7.85;85.06;99709.23;130671;1267;108690;-80
2022/04/21 04:29:51;;;;;;;39.40;23.90;;;;;;;7.89;84.78;99709.30;130964;1267;108630;-81
2022/04/21 04:32:56;;;;;;;36.60;22.80;;;;;;;7.91;84.91;99709.30;131031;1267;109668;-80
2022/04/21 04:36:01;;;;;;;42.00;25.80;;;;;;;7.90;85.13;99709.77;131722;1267;108823;-81
2022/04/21 04:39:07;;;;;;;40.60;25.10;;;;;;;7.88;85.65;99711.82;131530;1268;108729;-78
2022/04/21 04:42:20;;;;;;;39.90;25.40;;;;;;;7.91;85.03;99713.73;131006;1268;108645;-79
2022/04/21 04:48:50;;;;;;;33.60;21.00;;;;;;;7.91;86.27;99713.35;131340;1270;108820;-80
2022/04/21 04:51:55;;;;;;;33.70;21.50;;;;;;;7.93;85.60;99715.27;130590;1268;108817;-78
2022/04/21 04:55:01;;;;;;;36.80;23.30;;;;;;;8.00;85.97;99712.97;130299;1268;108620;-82
2022/04/21 04:58:07;;;;;;;33.90;21.90;;;;;;;8.02;85.64;99711.02;130735;1269;108918;-87
2022/04/21 05:01:12;;;;;;;30.30;18.30;;;;;;;8.03;86.11;99714.14;130476;1269;108801;-85
2022/04/21 05:04:19;;;;;;;25.80;17.30;;;;;;;8.03;85.56;99709.85;130668;1270;108645;-81
2022/04/21 05:07:25;;;;;;;27.40;18.10;;;;;;;8.12;85.06;99705.96;130624;1268;108641;-81
2022/04/21 05:10:30;;;;;;;26.00;18.80;;;;;;;8.21;84.92;99703.29;130442;1268;108779;-80
2022/04/21 05:13:36;;;;;;;24.80;17.30;;;;;;;8.28;85.21;99701.77;130480;1270;108770;-82
2022/04/21 05:16:41;;;;;;;25.30;16.50;;;;;;;8.29;85.06;99698.10;130500;1268;108873;-82
2022/04/21 05:19:49;;;;;;;21.90;14.90;;;;;;;8.28;86.32;99697.31;130520;1270;108977;-81
2022/04/21 05:23:05;;;;;;;23.90;16.80;;;;;;;8.21;85.88;99698.91;130845;1268;108848;-83
2022/04/21 05:26:12;;;;;;;25.20;17.20;;;;;;;8.26;85.95;99694.70;130611;1269;108694;-82
2022/04/21 05:32:43;;;;;;;21.50;14.40;;;;;;;8.26;85.98;99696.10;130479;1271;108784;-82
2022/04/21 05:35:49;;;;;;;18.60;13.20;;;;;;;8.23;86.35;99698.44;130545;1268;107697;-82
2022/04/21 05:38:55;;;;;;;22.00;16.00;;;;;;;8.23;86.29;99696.40;130514;1268;108957;-81
2022/04/21 05:42:02;;;;;;;26.00;19.70;;;;;;;8.24;86.51;99701.70;130370;1268;108743;-83
2022/04/21 05:45:10;;;;;;;21.60;16.10;;;;;;;8.23;87.11;99701.98;130558;1268;108903;-83
2022/04/21 05:48:18;;;;;;;20.90;14.80;;;;;;;8.22;86.63;99701.75;130490;1268;108777;-82
2022/04/21 05:51:24;;;;;;;21.40;14.20;;;;;;;8.21;87.42;99704.59;130587;1268;108809;-83
2022/04/21 05:54:30;;;;;;;22.50;15.90;;;;;;;8.21;86.88;99704.49;130507;1271;108791;-82
2022/04/21 05:57:40;;;;;;;21.70;15.90;;;;;;;8.27;86.98;99708.40;130501;1270;108903;-84
2022/04/21 06:00:46;;;;;;;22.00;15.40;;;;;;;8.32;86.89;99707.39;130475;1268;108661;-83
2022/04/21 06:03:52;;;;;;;19.60;13.30;;;;;;;8.31;86.75;99709.58;130450;1270;108608;-83
2022/04/21 06:06:58;;;;;;;17.30;12.30;;;;;;;8.34;86.46;99703.23;130545;1271;108971;-83
2022/04/21 06:10:03;;;;;;;22.00;15.50;;;;;;;8.44;86.42;99713.34;130519;1268;107657;-81
2022/04/21 06:13:09;;;;;;;23.10;16.40;;;;;;;8.47;86.15;99713.73;130510;1268;107647;-84
2022/04/21 06:16:15;;;;;;;24.70;16.50;;;;;;;8.49;86.49;99713.69;130533;1270;108679;-82
2022/04/21 06:19:20;;;;;;;20.80;14.90;;;;;;;8.50;86.33;99718.07;130689;1268;108736;-82
2022/04/21 06:22:26;;;;;;;21.80;14.80;;;;;;;8.45;86.63;99720.30;130684;1268;108748;-85
2022/04/21 06:25:32;;;;;;;23.20;17.40;;;;;;;8.46;86.79;99718.64;130507;1268;108819;-85
2022/04/21 06:28:37;;;;;;;28.80;17.50;;;;;;;8.49;86.98;99718.53;130552;1271;108752;-86
2022/04/21 06:31:44;;;;;;;23.70;16.30;;;;;;;8.52;86.62;99719.79;130498;1268;108782;-85
2022/04/21 06:34:49;;;;;;;20.30;13.10;;;;;;;8.60;86.28;99723.73;130519;1268;107706;-86
2022/04/21 06:37:55;;;;;;;19.10;12.20;;;;;;;8.66;86.51;99724.42;130485;1268;108693;-87
2022/04/21 06:41:01;;;;;;;20.60;13.60;;;;;;;8.74;86.04;99727.39;130544;1271;108653;-87
2022/04/21 06:50:55;;;;;;;15.20;10.50;;;;;;;8.95;86.10;99728.24;130546;1268;107692;-86
2022/04/21 06:54:01;;;;;;;13.00;9.90;;;;;;;8.99;85.80;99728.52;130611;1268;108714;-86
2022/04/21 06:57:06;;;;;;;15.20;10.90;;;;;;;9.14;85.77;99732.89;130600;1268;108768;-86
2022/04/21 07:00:14;;;;;;;14.00;10.50;;;;;;;9.34;85.60;99729.05;130625;1268;109087;-87
2022/04/21 07:03:19;;;;;;;15.40;12.00;;;;;;;9.56;85.14;99729.80;130591;1268;108825;-86
2022/04/21 07:06:25;;;;;;;14.80;11.10;;;;;;;9.70;85.05;99728.55;130602;1268;107707;-84
2022/04/21 07:09:30;;;;;;;13.90;10.00;;;;;;;9.82;84.93;99732.03;130564;1268;107554;-85
2022/04/21 07:12:36;;;;;;;12.20;9.20;;;;;;;9.88;84.70;99730.98;130584;1268;109075;-85
2022/04/21 07:15:42;;;;;;;14.20;10.30;;;;;;;9.92;84.60;99731.73;130688;1268;108854;-85
2022/04/21 07:18:48;;;;;;;11.40;9.50;;;;;;;10.01;84.62;99732.20;130604;1266;108872;-85
2022/04/21 07:21:53;;;;;;;12.90;10.10;;;;;;;10.13;84.30;99729.39;130720;1268;107695;-82
2022/04/21 07:25:01;;;;;;;14.70;11.30;;;;;;;10.13;83.95;99734.63;131537;1268;108874;-85
2022/04/21 07:28:07;;;;;;;15.20;12.10;;;;;;;10.12;83.91;99740.48;131445;1268;108931;-86
2022/04/21 07:31:12;;;;;;;10.70;7.80;;;;;;;10.08;84.01;99738.41;131415;1268;107796;-85
2022/04/21 07:34:18;;;;;;;12.70;10.50;;;;;;;10.03;84.12;99738.42;131241;1268;108783;-85
2022/04/21 07:37:23;;;;;;;15.10;11.20;;;;;;;10.09;84.04;99739.24;131445;1268;107891;-84
2022/04/21 07:40:30;;;;;;;13.80;10.60;;;;;;;10.12;83.68;99740.79;131162;1268;107791;-85
2022/04/21 07:43:37;;;;;;;11.20;8.80;;;;;;;10.13;83.72;99744.59;131241;1268;108807;-85
2022/04/21 07:46:44;;;;;;;50.10;35.90;;;;;;;10.12;83.81;99747.98;131343;1268;108729;-85
2022/04/21 07:49:49;;;;;;;15.60;11.20;;;;;;;10.04;83.89;99746.23;131078;1268;108957;-85
2022/04/21 07:56:17;;;;;;;16.30;10.90;;;;;;;10.04;83.72;99751.92;131232;1268;108104;-85
2022/04/21 07:59:23;;;;;;;23.00;16.80;;;;;;;10.08;83.74;99752.10;131370;1268;108637;-85
2022/04/21 08:02:32;;;;;;;15.30;10.70;;;;;;;10.08;83.46;99756.84;131357;1268;108848;-84
2022/04/21 08:05:37;;;;;;;12.70;9.50;;;;;;;10.02;83.58;99755.89;131295;1268;108815;-85
2022/04/21 08:08:43;;;;;;;17.50;13.80;;;;;;;10.00;83.43;99756.08;131263;1268;108676;-85
2022/04/21 08:11:48;;;;;;;15.20;11.50;;;;;;;10.01;83.55;99758.28;131431;1268;108047;-85
2022/04/21 08:14:54;;;;;;;17.40;13.30;;;;;;;10.07;83.39;99759.63;131334;1268;108700;-85
2022/04/21 08:18:01;;;;;;;33.40;28.60;;;;;;;10.07;83.20;99762.90;131562;1268;108758;-86
2022/04/21 08:21:07;;;;;;;17.70;14.60;;;;;;;10.03;83.16;99761.52;131355;1268;108677;-86
2022/04/21 08:34:23;;;;;;;13.00;10.10;;;;;;;10.10;83.38;99766.23;131479;1267;108697;-86
2022/04/21 08:37:28;;;;;;;15.50;9.90;;;;;;;10.16;83.42;99764.02;131474;1266;107386;-86
2022/04/21 08:40:35;;;;;;;12.60;10.50;;;;;;;10.21;83.25;99760.11;131450;1268;108837;-86
2022/04/21 08:43:42;;;;;;;13.60;10.70;;;;;;;10.28;83.57;99757.69;131355;1268;108976;-86
2022/04/21 08:46:49;;;;;;;11.90;8.60;;;;;;;10.35;83.66;99762.26;131420;1268;108686;-86
2022/04/21 08:50:03;;;;;;;27.80;17.00;;;;;;;10.44;83.32;99759.98;131392;1267;108979;-86
2022/04/21 08:53:10;;;;;;;13.00;9.60;;;;;;;10.56;83.01;99761.06;131339;1268;109553;-84
2022/04/21 08:56:16;;;;;;;11.70;9.50;;;;;;;10.65;83.14;99754.80;130667;1268;108756;-83
2022/04/21 08:59:22;;;;;;;13.30;9.50;;;;;;;10.74;83.29;99758.55;130746;1268;106972;-88
2022/04/21 09:02:42;;;;;;;12.20;9.30;;;;;;;10.81;82.82;99759.07;130726;1268;109415;-84
2022/04/21 09:05:47;;;;;;;11.60;8.60;;;;;;;10.73;82.39;99758.88;130647;1268;108061;-84
2022/04/21 09:09:17;;;;;;;53.90;40.50;;;;;;;10.62;82.10;99764.88;130614;1268;109120;-84
2022/04/21 09:12:24;;;;;;;50.30;36.50;;;;;;;10.63;82.61;99759.80;130730;1268;108644;-81
2022/04/21 09:15:31;;;;;;;14.50;11.80;;;;;;;10.73;83.12;99762.60;131051;1268;108845;-84
2022/04/21 09:18:41;;;;;;;13.20;10.80;;;;;;;10.86;82.39;99757.08;130859;1268;108749;-83
2022/04/21 09:21:50;;;;;;;12.70;9.70;;;;;;;10.96;82.54;99757.04;130853;1268;108369;-85
2022/04/21 09:24:58;;;;;;;8.60;7.00;;;;;;;11.11;82.39;99756.02;130664;1268;108780;-83
2022/04/21 09:28:04;;;;;;;9.90;7.60;;;;;;;11.24;82.12;99756.67;130820;1268;109157;-85
2022/04/21 09:31:10;;;;;;;10.20;7.70;;;;;;;11.33;82.07;99754.95;130598;1268;108873;-73
2022/04/21 09:34:16;;;;;;;11.60;8.80;;;;;;;11.44;81.97;99760.08;130158;1268;108942;-77
2022/04/21 09:37:22;;;;;;;11.10;8.70;;;;;;;11.42;81.55;99756.86;130417;1268;107087;-78
2022/04/21 09:40:30;;;;;;;10.10;8.40;;;;;;;11.35;81.43;99753.88;130390;1268;108776;-72
2022/04/21 09:43:37;;;;;;;13.70;9.30;;;;;;;11.23;81.25;99755.41;130443;1268;108655;-73
2022/04/21 09:46:43;;;;;;;12.50;8.60;;;;;;;11.03;81.42;99753.70;130451;1268;108963;-73
2022/04/21 09:49:49;;;;;;;10.10;7.60;;;;;;;10.84;81.54;99752.54;130377;1268;108840;-74
2022/04/21 09:52:55;;;;;;;10.10;7.80;;;;;;;10.69;81.48;99749.13;130199;1268;108698;-74
2022/04/21 09:56:10;;;;;;;17.60;10.40;;;;;;;10.67;82.07;99748.56;130407;1268;108780;-74
2022/04/21 09:59:18;;;;;;;22.30;14.80;;;;;;;10.74;82.37;99748.34;130428;1268;108744;-73
2022/04/21 10:02:24;;;;;;;16.50;11.80;;;;;;;10.82;82.15;99744.70;130513;1268;107543;-72
2022/04/21 10:05:32;;;;;;;13.40;9.40;;;;;;;10.89;81.82;99741.13;130404;1267;108868;-74
2022/04/21 10:08:42;;;;;;;14.10;9.90;;;;;;;10.99;82.20;99738.08;130427;1267;108901;-73
2022/04/21 10:11:47;;;;;;;14.40;10.20;;;;;;;11.25;82.32;99735.90;130447;1268;108549;-74
2022/04/21 10:14:54;;;;;;;11.00;8.60;;;;;;;11.68;82.15;99731.84;130481;1268;108743;-74
2022/04/21 10:18:00;;;;;;;14.30;9.80;;;;;;;12.13;81.92;99730.34;130470;1267;108978;-74
2022/04/21 10:21:06;;;;;;;9.90;8.20;;;;;;;12.49;81.01;99727.28;130409;1267;109190;-73
2022/04/21 10:24:11;;;;;;;9.90;8.20;;;;;;;12.72;81.29;99727.34;130406;1267;109074;-74
2022/04/21 10:27:40;;;;;;;12.70;9.00;;;;;;;12.73;79.02;99730.00;130414;1267;108671;-73
2022/04/21 10:30:45;;;;;;;26.80;16.00;;;;;;;12.48;78.66;99736.12;130394;1267;108655;-74
2022/04/21 10:33:58;;;;;;;45.30;22.60;;;;;;;12.49;79.73;99735.39;130413;1267;108640;-73
2022/04/21 10:37:15;;;;;;;29.50;16.80;;;;;;;12.49;79.55;99735.92;130441;1268;108617;-74
2022/04/21 10:40:25;;;;;;;14.90;10.60;;;;;;;12.33;79.31;99739.13;130437;1267;108741;-73
2022/04/21 10:44:03;;;;;;;10.40;8.30;;;;;;;12.14;79.11;99738.66;130417;1267;108589;-73
2022/04/21 10:47:41;;;;;;;12.90;8.90;;;;;;;11.99;78.97;99739.26;130391;1266;108878;-73
2022/04/21 10:50:46;;;;;;;9.10;7.40;;;;;;;11.96;79.21;99742.92;130344;1267;108873;-73
2022/04/21 10:57:32;;;;;;;14.90;9.80;;;;;;;12.20;80.09;99738.09;130340;1267;107662;-73
2022/04/21 11:00:37;;;;;;;11.10;9.10;;;;;;;12.29;78.90;99741.76;130432;1268;108717;-73
2022/04/21 11:03:45;;;;;;;19.50;10.90;;;;;;;12.24;78.79;99737.83;130441;1268;108689;-74
2022/04/21 11:06:54;;;;;;;9.60;8.50;;;;;;;12.39;79.01;99733.21;130382;1267;108679;-75
2022/04/21 11:10:00;;;;;;;9.20;7.20;;;;;;;12.56;79.07;99727.39;130431;1267;108633;-76
2022/04/21 11:13:06;;;;;;;10.30;8.20;;;;;;;12.72;78.48;99731.67;130433;1268;108715;-72
2022/04/21 11:16:11;;;;;;;9.20;7.40;;;;;;;12.85;77.72;99730.02;130535;1267;108778;-73
2022/04/21 11:19:45;;;;;;;8.80;6.70;;;;;;;12.89;76.87;99739.16;130275;1268;108726;-74
2022/04/21 11:22:51;;;;;;;7.80;7.00;;;;;;;12.76;74.93;99736.77;130419;1268;108780;-74
2022/04/21 11:26:04;;;;;;;8.40;6.60;;;;;;;12.62;75.16;99738.24;130478;1268;109261;-74
2022/04/21 11:29:10;;;;;;;7.90;7.10;;;;;;;12.59;75.32;99733.71;130443;1267;108672;-75
2022/04/21 11:32:19;;;;;;;8.40;7.50;;;;;;;12.57;75.08;99731.48;130480;1267;108685;-75
2022/04/21 11:35:25;;;;;;;8.60;7.40;;;;;;;12.49;75.64;99731.55;130646;1267;108670;-74
2022/04/21 11:38:32;;;;;;;8.50;6.80;;;;;;;12.41;76.34;99736.38;130451;1267;108792;-78
2022/04/21 11:41:44;;;;;;;9.00;6.80;;;;;;;12.42;76.45;99735.02;130410;1267;108601;-77
2022/04/21 11:44:49;;;;;;;10.50;6.50;;;;;;;12.42;75.37;99734.38;130459;1267;108955;-75
2022/04/21 11:47:55;;;;;;;8.10;7.00;;;;;;;12.44;75.32;99730.39;130411;1267;107521;-74
2022/04/21 11:51:02;;;;;;;8.70;6.50;;;;;;;12.57;76.14;99729.39;130461;1268;108755;-76
2022/04/21 11:54:09;;;;;;;8.40;6.70;;;;;;;12.76;74.94;99727.39;130413;1268;108914;-74
2022/04/21 11:57:14;;;;;;;8.90;6.80;;;;;;;12.76;73.17;99728.03;130415;1268;108698;-74
2022/04/21 12:07:20;;;;;;;7.90;7.00;;;;;;;12.85;73.15;99720.02;130379;1267;108909;-75
2022/04/21 12:10:25;;;;;;;8.00;6.80;;;;;;;12.85;72.76;99723.14;130296;1268;108712;-73
2022/04/21 12:13:31;;;;;;;9.20;7.00;;;;;;;12.91;73.33;99720.03;130508;1268;108964;-74
2022/04/21 12:16:38;;;;;;;19.50;12.40;;;;;;;13.07;73.93;99714.10;130336;1268;108988;-75
2022/04/21 12:19:46;;;;;;;13.70;10.00;;;;;;;13.19;73.35;99713.58;130364;1268;108031;-76
2022/04/21 12:22:51;;;;;;;15.60;9.40;;;;;;;13.23;71.82;99711.02;130363;1268;108801;-74
2022/04/21 12:26:00;;;;;;;9.80;8.30;;;;;;;13.25;72.85;99710.13;130350;1267;188557;-73
2022/04/21 12:29:08;;;;;;;9.90;7.30;;;;;;;13.25;72.40;99708.85;130339;1267;108595;-79
2022/04/21 12:32:16;;;;;;;9.20;7.50;;;;;;;13.26;71.76;99707.55;130338;1267;108152;-78
2022/04/21 12:35:46;;;;;;;8.40;7.40;;;;;;;13.22;72.05;99708.66;130352;1268;108756;-74
2022/04/21 12:39:04;;;;;;;9.90;7.40;;;;;;;13.14;71.33;99709.77;130363;1267;108142;-75
2022/04/21 12:42:10;;;;;;;8.30;7.10;;;;;;;13.03;71.69;99706.54;130453;1267;108856;-76
2022/04/21 12:45:15;;;;;;;9.70;7.20;;;;;;;12.96;72.28;99711.38;130386;1268;108761;-76
2022/04/21 12:48:27;;;;;;;8.00;7.20;;;;;;;12.99;71.87;99707.68;130331;1268;108635;-76
2022/04/21 12:51:31;;;;;;;;;;;;;;;12.92;71.21;99707.08;130344;1268;108818;-73
2022/04/21 12:54:37;;;;;;;8.80;7.70;;;;;;;12.86;72.16;99713.08;130324;1268;108669;-73
2022/04/21 12:57:42;;;;;;;14.00;9.90;;;;;;;12.83;72.17;99709.57;130314;1268;108814;-77
2022/04/21 13:00:49;;;;;;;43.20;29.20;;;;;;;12.79;72.50;99709.83;130384;1268;107669;-75
2022/04/21 13:03:55;;;;;;;19.10;13.40;;;;;;;12.77;72.50;99707.71;130293;1267;108870;-74
2022/04/21 13:07:01;;;;;;;18.10;13.60;;;;;;;12.74;72.08;99711.08;130395;1267;108762;-73
2022/04/21 13:10:08;;;;;;;27.20;17.80;;;;;;;12.76;72.64;99709.50;130284;1268;108871;-74
2022/04/21 13:13:14;;;;;;;17.80;13.80;;;;;;;12.84;71.47;99714.08;130341;1268;108843;-74
2022/04/21 13:16:20;;;;;;;16.70;14.00;;;;;;;12.86;71.63;99713.89;130269;1268;108971;-73
2022/04/21 13:19:26;;;;;;;21.20;18.30;;;;;;;12.84;71.32;99712.70;130364;1268;108908;-74
2022/04/21 13:22:31;;;;;;;16.20;14.40;;;;;;;12.80;71.19;99715.15;130525;1268;109052;-73
2022/04/21 13:25:37;;;;;;;17.50;15.50;;;;;;;12.79;71.97;99715.76;130279;1268;108596;-72
2022/04/21 13:28:42;;;;;;;20.30;18.20;;;;;;;12.77;71.04;99718.16;130339;1268;108701;-72
2022/04/21 13:35:12;;;;;;;20.10;18.00;;;;;;;12.56;71.69;99718.36;130450;1267;108849;-72
2022/04/21 13:38:18;;;;;;;16.80;15.00;;;;;;;12.54;71.98;99713.98;130375;1268;108781;-77
2022/04/21 13:41:23;;;;;;;17.90;16.00;;;;;;;12.56;71.92;99714.14;130594;1267;108805;-77
2022/04/21 13:44:29;;;;;;;20.00;17.70;;;;;;;12.61;71.91;99711.25;130645;1267;108686;-74
2022/04/21 13:47:35;;;;;;;24.70;20.90;;;;;;;12.68;71.71;99712.53;130489;1268;108955;-74
2022/04/21 13:50:41;;;;;;;18.80;16.80;;;;;;;12.82;72.03;99716.84;130405;1268;108683;-73
2022/04/21 13:53:46;;;;;;;29.60;23.30;;;;;;;12.89;71.61;99716.52;130355;1267;109070;-73
2022/04/21 13:56:53;;;;;;;21.80;17.20;;;;;;;12.98;71.87;99714.55;130216;1270;108886;-74
2022/04/21 13:59:58;;;;;;;20.20;17.10;;;;;;;13.04;72.15;99717.84;130345;1268;108821;-77
2022/04/21 14:03:04;;;;;;;19.60;15.90;;;;;;;13.02;71.06;99713.77;130552;1267;108814;-72
2022/04/21 14:06:09;;;;;;;14.50;13.00;;;;;;;12.88;70.88;99721.24;130374;1267;108892;-73
2022/04/21 14:09:15;;;;;;;12.90;11.60;;;;;;;12.79;71.44;99720.91;130993;1267;108788;-71
2022/04/21 14:12:20;;;;;;;29.70;24.80;;;;;;;12.75;71.71;99725.27;130464;1267;108443;-71
2022/04/21 14:15:26;;;;;;;13.80;11.80;;;;;;;12.76;71.62;99726.67;130569;1268;108676;-72
2022/04/21 14:18:31;;;;;;;14.20;12.10;;;;;;;12.77;71.24;99723.47;130399;1267;109126;-71
2022/04/21 14:21:37;;;;;;;12.80;11.50;;;;;;;12.81;71.04;99731.65;130467;1267;109064;-73
2022/04/21 14:24:43;;;;;;;11.70;9.90;;;;;;;12.81;71.12;99728.39;130391;1267;108918;-80
2022/04/21 14:27:48;;;;;;;12.40;10.80;;;;;;;12.82;71.48;99726.77;130329;1267;109028;-71
2022/04/21 14:30:54;;;;;;;11.20;10.00;;;;;;;12.84;71.58;99729.66;130119;1267;108770;-71
2022/04/21 14:33:59;;;;;;;11.10;9.40;;;;;;;12.80;71.11;99730.41;130126;1267;108667;-72
2022/04/21 14:37:05;;;;;;;17.20;12.00;;;;;;;12.74;71.46;99734.71;130212;1267;108714;-71
2022/04/21 14:47:02;;;;;;;12.40;10.10;;;;;;;12.56;71.86;99736.08;130090;1267;108733;-69
2022/04/21 14:50:11;;;;;;;16.90;13.60;;;;;;;12.56;71.83;99736.91;130092;1267;108832;-70
2022/04/21 14:53:16;;;;;;;13.80;11.30;;;;;;;12.64;72.02;99740.02;130086;1267;107964;-70
2022/04/21 14:56:22;;;;;;;19.80;15.00;;;;;;;12.65;71.45;99737.55;130071;1266;108703;-70
2022/04/21 14:59:28;;;;;;;21.00;15.50;;;;;;;12.65;72.01;99737.55;130077;1267;108750;-72
2022/04/21 15:02:33;;;;;;;21.80;15.80;;;;;;;12.60;71.71;99736.46;130081;1267;108320;-71
2022/04/21 15:05:40;;;;;;;20.90;13.10;;;;;;;12.49;71.74;99733.53;130412;1267;108690;-72
2022/04/21 15:08:45;;;;;;;28.90;16.70;;;;;;;12.42;72.17;99730.02;130392;1267;108665;-72
2022/04/21 15:11:51;;;;;;;25.90;16.50;;;;;;;12.38;72.35;99731.73;130357;1267;108773;-71
2022/04/21 15:14:56;;;;;;;19.10;12.80;;;;;;;12.34;72.26;99731.32;130235;1267;109138;-70
2022/04/21 15:18:02;;;;;;;13.60;10.40;;;;;;;12.32;72.47;99735.61;130112;1267;108705;-69
2022/04/21 15:21:08;;;;;;;13.10;9.10;;;;;;;12.31;72.47;99735.76;130142;1267;108775;-70
2022/04/21 15:24:13;;;;;;;15.20;11.70;;;;;;;12.29;72.45;99732.13;130134;1268;108680;-70